createdAt,value
2018-07-28T00:04:50.481Z,1001.74
2018-07-28T00:09:46.761Z,1001.59
2018-07-28T00:14:42.827Z,1001.56
2018-07-28T00:19:38.704Z,1001.52
2018-07-28T00:24:35.056Z,1001.55
2018-07-28T00:29:32.040Z,1001.65
2018-07-28T00:34:27.694Z,1001.62
2018-07-28T00:39:24.807Z,1001.57
2018-07-28T00:44:20.318Z,1001.45
2018-07-28T00:49:16.172Z,1001.44
2018-07-28T00:54:12.088Z,1001.39
2018-07-28T00:59:07.919Z,1001.28
2018-07-28T01:04:03.763Z,1001.25
2018-07-28T01:08:59.791Z,1001.22
2018-07-28T01:13:56.138Z,1001.21
2018-07-28T01:18:52.137Z,1001.13
2018-07-28T01:23:48.058Z,1001.08
2018-07-28T01:28:44.070Z,1001.05
2018-07-28T01:33:40.058Z,1000.92
2018-07-28T01:38:36.144Z,1000.91
2018-07-28T01:43:33.140Z,1000.89
2018-07-28T01:48:30.669Z,1000.76
2018-07-28T01:53:26.206Z,1000.70
2018-07-28T01:58:22.501Z,1000.59
2018-07-28T02:03:19.583Z,1000.48
2018-07-28T02:08:15.344Z,1000.47
2018-07-28T02:13:11.075Z,1000.37
2018-07-28T02:18:06.995Z,1000.28
2018-07-28T02:23:02.901Z,1000.19
2018-07-28T02:27:58.789Z,1000.05
2018-07-28T02:32:55.194Z,1000.11
2018-07-28T02:37:51.150Z,1000.03
2018-07-28T02:42:47.133Z,999.93
2018-07-28T02:47:42.921Z,999.92
2018-07-28T02:52:39.154Z,999.81
2018-07-28T02:57:34.912Z,999.73
2018-07-28T03:02:30.692Z,999.68
2018-07-28T03:07:26.637Z,999.57
2018-07-28T03:12:23.677Z,999.51
2018-07-28T03:17:19.847Z,999.52
2018-07-28T03:22:16.909Z,999.53
2018-07-28T03:27:13.001Z,999.53
2018-07-28T03:32:08.876Z,999.58
2018-07-28T03:37:04.782Z,999.50
2018-07-28T03:42:00.559Z,999.63
2018-07-28T03:46:57.459Z,999.50
2018-07-28T03:51:52.891Z,999.53
2018-07-28T03:56:50.003Z,999.41
2018-07-28T04:01:46.772Z,999.34
2018-07-28T04:06:43.321Z,999.24
2018-07-28T04:11:39.447Z,999.30
2018-07-28T04:16:35.275Z,999.20
2018-07-28T04:21:31.336Z,999.27
2018-07-28T04:26:28.172Z,999.82
2018-07-28T04:31:23.891Z,999.68
2018-07-28T04:36:19.714Z,999.57
2018-07-28T04:41:15.917Z,999.70
2018-07-28T04:46:12.014Z,999.82
2018-07-28T04:51:07.976Z,999.83
2018-07-28T04:56:04.033Z,999.54
2018-07-28T05:00:59.940Z,1000.01
2018-07-28T05:05:57.325Z,999.91
2018-07-28T05:10:53.294Z,999.67
2018-07-28T05:15:49.215Z,999.64
2018-07-28T05:20:45.170Z,999.34
2018-07-28T05:25:40.977Z,999.66
2018-07-28T05:30:37.959Z,999.40
2018-07-28T05:35:33.543Z,999.53
2018-07-28T05:40:29.569Z,999.42
2018-07-28T05:45:25.996Z,999.48
2018-07-28T05:50:22.192Z,999.46
2018-07-28T05:55:19.435Z,999.40
2018-07-28T06:00:15.833Z,999.52
2018-07-28T06:05:13.464Z,999.38
2018-07-28T06:10:09.123Z,999.30
2018-07-28T06:15:05.946Z,999.36
2018-07-28T06:20:01.948Z,999.33
2018-07-28T06:24:58.037Z,999.34
2018-07-28T06:29:54.216Z,999.40
2018-07-28T06:34:50.228Z,999.53
2018-07-28T06:39:47.428Z,999.33
2018-07-28T06:44:43.064Z,999.38
2018-07-28T06:49:39.955Z,999.33
2018-07-28T06:54:37.009Z,999.42
2018-07-28T06:59:32.952Z,999.28
2018-07-28T07:04:28.937Z,999.32
2018-07-28T07:09:25.140Z,999.26
2018-07-28T07:14:21.277Z,999.46
2018-07-28T07:19:17.789Z,999.38
2018-07-28T07:24:14.978Z,999.52
2018-07-28T07:29:11.606Z,1000.32
2018-07-28T07:34:07.717Z,1000.10
2018-07-28T07:39:04.059Z,1000.21
2018-07-28T07:44:00.331Z,1000.31
2018-07-28T07:48:56.547Z,1000.46
2018-07-28T07:53:53.933Z,1000.56
2018-07-28T07:58:49.806Z,1000.54
2018-07-28T08:03:46.282Z,1000.58
2018-07-28T08:08:43.003Z,1000.55
2018-07-28T08:13:39.444Z,1000.45
2018-07-28T08:18:35.736Z,1000.41
2018-07-28T08:23:31.617Z,1000.28
2018-07-28T08:28:28.026Z,1000.41
2018-07-28T08:33:25.200Z,1000.51
2018-07-28T08:38:21.877Z,1000.47
2018-07-28T08:43:17.206Z,1000.52
2018-07-28T08:48:13.117Z,1000.50
2018-07-28T08:53:08.714Z,1000.42
2018-07-28T08:58:04.431Z,1000.69
2018-07-28T09:03:00.167Z,1000.76
2018-07-28T09:07:57.159Z,1000.64
2018-07-28T09:12:52.659Z,1000.48
2018-07-28T09:17:49.351Z,1000.41
2018-07-28T09:22:45.132Z,1000.59
2018-07-28T09:27:42.301Z,1000.64
2018-07-28T09:32:38.778Z,1000.63
2018-07-28T09:37:34.676Z,1000.70
2018-07-28T09:42:30.800Z,1000.68
2018-07-28T09:47:26.924Z,1000.75
2018-07-28T09:52:23.020Z,1001.08
2018-07-28T09:57:18.973Z,1001.28
2018-07-28T10:02:14.914Z,1001.47
2018-07-28T10:07:10.928Z,1001.46
2018-07-28T10:12:07.816Z,1001.50
2018-07-28T10:17:03.196Z,1001.54
2018-07-28T10:21:59.249Z,1001.62
2018-07-28T10:26:56.425Z,1001.74
2018-07-28T10:31:51.780Z,1001.66
2018-07-28T10:36:47.277Z,1001.65
2018-07-28T10:41:42.906Z,1001.75
2018-07-28T10:46:40.144Z,1001.89
2018-07-28T10:51:36.130Z,1001.88
2018-07-28T10:56:32.542Z,1001.91
2018-07-28T11:01:29.785Z,1001.95
2018-07-28T11:06:26.240Z,1001.90
2018-07-28T11:11:22.972Z,1001.93
2018-07-28T11:16:19.536Z,1001.87
2018-07-28T11:21:16.549Z,1001.86
2018-07-28T11:26:13.422Z,1001.74
2018-07-28T11:31:10.874Z,1001.78
2018-07-28T11:36:06.822Z,1001.73
2018-07-28T11:41:02.820Z,1001.63
2018-07-28T11:45:59.275Z,1001.66
2018-07-28T11:50:55.207Z,1001.63
2018-07-28T11:55:53.558Z,1001.71
2018-07-28T12:00:52.830Z,1001.59
2018-07-28T12:05:48.778Z,1001.68
2018-07-28T12:10:46.611Z,1001.76
2018-07-28T12:15:40.881Z,1001.73
2018-07-28T12:20:34.793Z,1001.58
2018-07-28T12:25:30.198Z,1001.67
2018-07-28T12:30:30.560Z,1001.54
2018-07-28T12:35:28.131Z,1001.49
2018-07-28T12:40:23.436Z,1001.42
2018-07-28T12:45:19.776Z,1001.54
2018-07-28T12:50:16.849Z,1001.76
2018-07-28T12:55:13.641Z,1001.74
2018-07-28T13:00:10.141Z,1001.82
2018-07-28T13:05:06.191Z,1001.79
2018-07-28T13:10:02.439Z,1001.69
2018-07-28T13:14:58.993Z,1001.85
2018-07-28T13:19:53.629Z,1001.72
2018-07-28T13:24:48.791Z,1001.74
2018-07-28T13:29:44.625Z,1001.50
2018-07-28T13:34:41.597Z,1001.47
2018-07-28T13:39:38.215Z,1001.52
2018-07-28T13:44:34.848Z,1001.53
2018-07-28T13:49:31.265Z,1001.47
2018-07-28T13:54:27.551Z,1001.43
2018-07-28T13:59:23.368Z,1001.25
2018-07-28T14:04:18.805Z,1001.30
2018-07-28T14:09:15.470Z,1001.23
2018-07-28T14:14:12.618Z,1001.00
2018-07-28T14:19:08.819Z,1000.98
2018-07-28T14:24:05.510Z,1000.94
2018-07-28T14:29:00.996Z,1000.93
2018-07-28T14:33:57.838Z,1000.89
2018-07-28T14:38:53.125Z,1001.07
2018-07-28T14:43:49.109Z,1001.02
2018-07-28T14:48:44.840Z,1001.05
2018-07-28T14:53:40.849Z,1001.23
2018-07-28T14:58:36.749Z,1001.21
2018-07-28T15:03:32.540Z,1001.41
2018-07-28T15:08:28.722Z,1001.50
2018-07-28T15:13:24.450Z,1001.53
2018-07-28T15:18:20.575Z,1001.59
2018-07-28T15:23:17.848Z,1001.59
2018-07-28T15:28:13.658Z,1001.77
2018-07-28T15:33:09.461Z,1002.32
2018-07-28T15:38:04.787Z,1002.38
2018-07-28T15:43:00.086Z,1002.56
2018-07-28T15:47:55.389Z,1002.76
2018-07-28T15:52:50.732Z,1003.07
2018-07-28T15:57:46.647Z,1002.86
2018-07-28T16:02:41.734Z,1003.03
2018-07-28T16:07:37.262Z,1003.18
2018-07-28T16:12:32.997Z,1003.16
2018-07-28T16:17:28.609Z,1002.97
2018-07-28T16:22:24.541Z,1003.02
2018-07-28T16:27:20.610Z,1003.17
2018-07-28T16:32:16.683Z,1003.14
2018-07-28T16:37:12.784Z,1003.07
2018-07-28T16:42:08.848Z,1003.10
2018-07-28T16:47:05.193Z,1003.18
2018-07-28T16:52:01.702Z,1003.17
2018-07-28T16:56:57.543Z,1003.21
2018-07-28T17:01:54.546Z,1003.44
2018-07-28T17:06:49.972Z,1003.54
2018-07-28T17:11:46.362Z,1003.59
2018-07-28T17:16:42.260Z,1003.81
2018-07-28T17:21:38.306Z,1003.99
2018-07-28T17:26:34.323Z,1003.98
2018-07-28T17:31:30.576Z,1004.13
2018-07-28T17:36:27.748Z,1004.23
2018-07-28T17:41:23.537Z,1004.38
2018-07-28T17:46:20.302Z,1004.47
2018-07-28T17:51:16.725Z,1004.61
2018-07-28T17:56:13.886Z,1004.75
2018-07-28T18:01:10.412Z,1004.76
2018-07-28T18:06:06.955Z,1004.86
2018-07-28T18:11:02.764Z,1004.79
2018-07-28T18:15:58.665Z,1005.00
2018-07-28T18:20:54.577Z,1005.03
2018-07-28T18:25:50.313Z,1004.92
2018-07-28T18:30:46.023Z,1005.13
2018-07-28T18:35:42.522Z,1005.15
2018-07-28T18:40:38.608Z,1005.36
2018-07-28T18:45:34.384Z,1005.32
2018-07-28T18:50:31.206Z,1005.23
2018-07-28T18:55:27.796Z,1005.19
2018-07-28T19:00:23.507Z,1005.23
2018-07-28T19:05:19.254Z,1005.20
2018-07-28T19:10:14.817Z,1005.29
2018-07-28T19:15:10.746Z,1005.29
2018-07-28T19:20:06.561Z,1005.30
2018-07-28T19:25:03.835Z,1005.42
2018-07-28T19:30:00.680Z,1005.47
2018-07-28T19:34:56.135Z,1005.57
2018-07-28T19:39:51.649Z,1005.71
2018-07-28T19:44:47.795Z,1005.78
2018-07-28T19:49:43.800Z,1005.84
2018-07-28T19:54:41.000Z,1006.05
2018-07-28T19:59:36.415Z,1006.21
2018-07-28T20:04:32.320Z,1006.23
2018-07-28T20:09:28.420Z,1006.41
2018-07-28T20:14:24.762Z,1006.63
2018-07-28T20:19:21.614Z,1006.70
2018-07-28T20:24:18.137Z,1006.86
2018-07-28T20:29:13.883Z,1006.99
2018-07-28T20:34:09.749Z,1007.05
2018-07-28T20:39:05.990Z,1007.10
2018-07-28T20:44:01.707Z,1007.19
2018-07-28T20:48:57.563Z,1007.10
2018-07-28T20:53:53.450Z,1007.12
2018-07-28T20:58:49.256Z,1007.08
2018-07-28T21:03:45.128Z,1007.13
2018-07-28T21:08:42.049Z,1007.21
2018-07-28T21:13:37.656Z,1007.36
2018-07-28T21:18:34.877Z,1007.39
2018-07-28T21:23:31.954Z,1007.52
2018-07-28T21:28:27.645Z,1007.52
2018-07-28T21:33:23.958Z,1007.57
2018-07-28T21:38:19.777Z,1007.62
2018-07-28T21:43:16.074Z,1007.66
2018-07-28T21:48:12.387Z,1007.63
2018-07-28T21:53:08.477Z,1007.62
2018-07-28T21:58:04.263Z,1007.52
2018-07-28T22:03:00.915Z,1007.61
2018-07-28T22:07:56.829Z,1007.69
2018-07-28T22:12:53.963Z,1007.73
2018-07-28T22:17:49.783Z,1007.73
2018-07-28T22:22:45.942Z,1007.91
2018-07-28T22:27:42.262Z,1007.85
2018-07-28T22:32:39.042Z,1007.89
2018-07-28T22:37:34.670Z,1008.04
2018-07-28T22:42:31.665Z,1008.15
2018-07-28T22:47:28.663Z,1008.26
2018-07-28T22:52:24.127Z,1008.30
2018-07-28T22:57:19.964Z,1008.34
2018-07-28T23:02:16.861Z,1008.42
2018-07-28T23:07:12.332Z,1008.45
2018-07-28T23:12:08.176Z,1008.53
2018-07-28T23:17:04.148Z,1008.54
2018-07-28T23:21:59.980Z,1008.50
2018-07-28T23:26:55.688Z,1008.65
2018-07-28T23:31:51.609Z,1008.61
2018-07-28T23:36:47.431Z,1008.60
2018-07-28T23:41:43.327Z,1008.60
2018-07-28T23:46:39.321Z,1008.44
2018-07-28T23:51:35.112Z,1008.58
2018-07-28T23:56:30.916Z,1008.62
